sensor_id;sensor_type;location;lat;lon;timestamp;pressure;altitude;pressure_sealevel;temperature;humidity
41624;BME280;27319;50.306;18.926;2023-02-11T00:00:21;99785.28;;;-1.02;81.79
41624;BME280;27319;50.306;18.926;2023-02-11T00:04:03;99774.38;;;-0.93;81.85
41624;BME280;27319;50.306;18.926;2023-02-11T00:07:04;99781.50;;;-0.95;82.33
41624;BME280;27319;50.306;18.926;2023-02-11T00:10:07;99770.28;;;-1.00;82.53
41624;BME280;27319;50.306;18.926;2023-02-11T00:13:28;99777.09;;;-0.94;82.99
41624;BME280;27319;50.306;18.926;2023-02-11T00:17:09;99775.50;;;-0.98;82.82
41624;BME280;27319;50.306;18.926;2023-02-11T00:20:30;99773.38;;;-1.12;82.59
41624;BME280;27319;50.306;18.926;2023-02-11T00:24:11;99769.09;;;-1.14;82.82
41624;BME280;27319;50.306;18.926;2023-02-11T00:27:11;99761.31;;;-1.17;83.17
41624;BME280;27319;50.306;18.926;2023-02-11T00:30:12;99765.00;;;-1.21;82.82
41624;BME280;27319;50.306;18.926;2023-02-11T00:33:13;99754.44;;;-1.21;83.37
41624;BME280;27319;50.306;18.926;2023-02-11T00:36:22;99750.09;;;-1.22;83.62
41624;BME280;27319;50.306;18.926;2023-02-11T00:39:24;99747.03;;;-1.12;83.33
41624;BME280;27319;50.306;18.926;2023-02-11T00:42:25;99742.50;;;-1.30;83.08
41624;BME280;27319;50.306;18.926;2023-02-11T00:45:26;99750.09;;;-1.22;83.83
41624;BME280;27319;50.306;18.926;2023-02-11T00:48:28;99731.00;;;-1.27;83.61
41624;BME280;27319;50.306;18.926;2023-02-11T00:51:29;99723.63;;;-1.19;84.08
41624;BME280;27319;50.306;18.926;2023-02-11T00:54:50;99715.03;;;-1.24;82.96
41624;BME280;27319;50.306;18.926;2023-02-11T00:58:51;99699.84;;;-1.39;83.65
41624;BME280;27319;50.306;18.926;2023-02-11T01:02:52;99669.59;;;-1.29;83.42
41624;BME280;27319;50.306;18.926;2023-02-11T01:06:33;99686.41;;;-1.32;84.08
41624;BME280;27319;50.306;18.926;2023-02-11T01:09:36;99669.38;;;-1.23;83.88
41624;BME280;27319;50.306;18.926;2023-02-11T01:12:57;99654.84;;;-1.33;83.74
41624;BME280;27319;50.306;18.926;2023-02-11T01:16:58;99657.00;;;-1.43;84.20
41624;BME280;27319;50.306;18.926;2023-02-11T01:20:39;99641.13;;;-1.41;84.61
41624;BME280;27319;50.306;18.926;2023-02-11T01:23:40;99650.38;;;-1.31;84.95
41624;BME280;27319;50.306;18.926;2023-02-11T01:26:41;99665.09;;;-1.26;84.45
41624;BME280;27319;50.306;18.926;2023-02-11T01:29:42;99666.66;;;-1.22;83.76
41624;BME280;27319;50.306;18.926;2023-02-11T01:33:03;99658.47;;;-1.14;83.42
41624;BME280;27319;50.306;18.926;2023-02-11T01:36:26;99648.16;;;-1.20;83.76
41624;BME280;27319;50.306;18.926;2023-02-11T01:39:26;99645.84;;;-1.28;84.44
41624;BME280;27319;50.306;18.926;2023-02-11T01:42:28;99651.97;;;-1.27;84.05
41624;BME280;27319;50.306;18.926;2023-02-11T01:45:47;99636.91;;;-1.24;84.05
41624;BME280;27319;50.306;18.926;2023-02-11T01:52:09;99641.06;;;-1.18;84.02
41624;BME280;27319;50.306;18.926;2023-02-11T01:55:28;99646.56;;;-1.24;84.25
41624;BME280;27319;50.306;18.926;2023-02-11T01:58:50;99628.81;;;-1.19;84.30
41624;BME280;27319;50.306;18.926;2023-02-11T02:02:14;99634.69;;;-1.13;84.05
41624;BME280;27319;50.306;18.926;2023-02-11T02:06:07;99623.22;;;-1.12;83.81
41624;BME280;27319;50.306;18.926;2023-02-11T02:09:19;99615.69;;;-1.21;84.61
41624;BME280;27319;50.306;18.926;2023-02-11T02:12:22;99615.69;;;-1.21;84.68
41624;BME280;27319;50.306;18.926;2023-02-11T02:15:31;99599.16;;;-1.24;85.39
41624;BME280;27319;50.306;18.926;2023-02-11T02:26:06;99572.72;;;-1.21;85.25
41624;BME280;27319;50.306;18.926;2023-02-11T02:39:39;99550.00;;;-1.04;84.63
41624;BME280;27319;50.306;18.926;2023-02-11T02:43:20;99532.81;;;-0.92;84.65
41624;BME280;27319;50.306;18.926;2023-02-11T02:46:30;99521.22;;;-1.08;84.77
41624;BME280;27319;50.306;18.926;2023-02-11T02:49:31;99515.84;;;-1.05;84.85
41624;BME280;27319;50.306;18.926;2023-02-11T03:09:39;99505.66;;;-0.74;82.60
41624;BME280;27319;50.306;18.926;2023-02-11T03:12:44;99512.56;;;-0.72;82.38
41624;BME280;27319;50.306;18.926;2023-02-11T03:15:49;99508.16;;;-0.71;82.16
41624;BME280;27319;50.306;18.926;2023-02-11T03:18:56;99514.59;;;-0.78;81.46
41624;BME280;27319;50.306;18.926;2023-02-11T03:22:02;99513.22;;;-0.67;81.26
41624;BME280;27319;50.306;18.926;2023-02-11T03:25:05;99508.06;;;-0.70;81.53
41624;BME280;27319;50.306;18.926;2023-02-11T03:28:38;99509.50;;;-0.81;82.41
41624;BME280;27319;50.306;18.926;2023-02-11T03:39:55;99484.72;;;-0.77;81.27
41624;BME280;27319;50.306;18.926;2023-02-11T03:43:41;99477.59;;;-0.75;81.16
41624;BME280;27319;50.306;18.926;2023-02-11T03:46:47;99471.66;;;-0.80;81.36
41624;BME280;27319;50.306;18.926;2023-02-11T03:49:52;99462.13;;;-0.83;81.04
41624;BME280;27319;50.306;18.926;2023-02-11T03:53:33;99438.66;;;-0.69;80.91
41624;BME280;27319;50.306;18.926;2023-02-11T03:57:14;99425.38;;;-0.67;80.48
41624;BME280;27319;50.306;18.926;2023-02-11T04:00:15;99421.03;;;-0.68;80.31
41624;BME280;27319;50.306;18.926;2023-02-11T04:03:16;99420.97;;;-0.67;80.23
41624;BME280;27319;50.306;18.926;2023-02-11T04:06:18;99409.06;;;-0.75;80.46
41624;BME280;27319;50.306;18.926;2023-02-11T04:09:19;99407.28;;;-0.56;80.07
41624;BME280;27319;50.306;18.926;2023-02-11T04:12:20;99397.09;;;-0.64;80.56
41624;BME280;27319;50.306;18.926;2023-02-11T04:15:21;99389.47;;;-0.70;80.51
41624;BME280;27319;50.306;18.926;2023-02-11T04:18:22;99391.19;;;-0.69;80.56
41624;BME280;27319;50.306;18.926;2023-02-11T04:21:23;99380.28;;;-0.61;80.32
41624;BME280;27319;50.306;18.926;2023-02-11T04:24:24;99377.44;;;-0.75;81.16
41624;BME280;27319;50.306;18.926;2023-02-11T04:27:44;99380.28;;;-0.61;80.07
41624;BME280;27319;50.306;18.926;2023-02-11T04:30:49;99377.38;;;-0.74;80.72
41624;BME280;27319;50.306;18.926;2023-02-11T04:33:51;99375.16;;;-0.64;80.38
41624;BME280;27319;50.306;18.926;2023-02-11T04:36:52;99381.06;;;-0.78;80.87
41624;BME280;27319;50.306;18.926;2023-02-11T04:39:53;99395.13;;;-0.77;80.74
41624;BME280;27319;50.306;18.926;2023-02-11T04:42:53;99396.81;;;-0.76;80.77
41624;BME280;27319;50.306;18.926;2023-02-11T04:45:57;99399.28;;;-0.73;81.00
41624;BME280;27319;50.306;18.926;2023-02-11T04:48:58;99385.47;;;-0.78;80.82
41624;BME280;27319;50.306;18.926;2023-02-11T04:51:59;99382.47;;;-0.71;81.47
41624;BME280;27319;50.306;18.926;2023-02-11T04:55:00;99384.78;;;-0.63;81.17
41624;BME280;27319;50.306;18.926;2023-02-11T04:58:21;99387.69;;;-0.69;81.13
41624;BME280;27319;50.306;18.926;2023-02-11T05:02:02;99397.66;;;-0.57;80.54
41624;BME280;27319;50.306;18.926;2023-02-11T05:05:23;99385.81;;;-0.67;81.32
41624;BME280;27319;50.306;18.926;2023-02-11T05:09:19;99376.84;;;-0.63;80.78
41624;BME280;27319;50.306;18.926;2023-02-11T05:12:56;99376.56;;;-0.57;80.61
41624;BME280;27319;50.306;18.926;2023-02-11T05:15:56;99369.00;;;-0.46;80.58
41624;BME280;27319;50.306;18.926;2023-02-11T05:18:58;99381.50;;;-0.50;80.57
41624;BME280;27319;50.306;18.926;2023-02-11T05:21:58;99380.91;;;-0.56;80.84
41624;BME280;27319;50.306;18.926;2023-02-11T05:25:00;99382.56;;;-0.54;80.58
41624;BME280;27319;50.306;18.926;2023-02-11T05:28:00;99386.25;;;-0.58;80.78
41624;BME280;27319;50.306;18.926;2023-02-11T05:31:21;99377.97;;;-0.50;80.61
41624;BME280;27319;50.306;18.926;2023-02-11T05:35:03;99393.03;;;-0.52;81.10
41624;BME280;27319;50.306;18.926;2023-02-11T05:38:03;99394.66;;;-0.50;80.93
41624;BME280;27319;50.306;18.926;2023-02-11T05:41:05;99387.94;;;-0.38;80.44
41624;BME280;27319;50.306;18.926;2023-02-11T05:44:06;99383.13;;;-0.47;80.81
41624;BME280;27319;50.306;18.926;2023-02-11T05:47:27;99382.19;;;-0.28;80.41
41624;BME280;27319;50.306;18.926;2023-02-11T05:51:08;99350.72;;;-0.32;80.47
41624;BME280;27319;50.306;18.926;2023-02-11T05:54:28;99347.97;;;-0.29;80.21
41624;BME280;27319;50.306;18.926;2023-02-11T05:58:09;99345.91;;;-0.41;80.30
41624;BME280;27319;50.306;18.926;2023-02-11T06:01:10;99343.03;;;-0.37;80.52
41624;BME280;27319;50.306;18.926;2023-02-11T06:04:11;99340.28;;;-0.34;80.88
41624;BME280;27319;50.306;18.926;2023-02-11T06:07:12;99346.06;;;-0.44;80.76
41624;BME280;27319;50.306;18.926;2023-02-11T06:10:13;99348.56;;;-0.41;80.61
41624;BME280;27319;50.306;18.926;2023-02-11T06:13:34;99341.94;;;-0.50;81.44
41624;BME280;27319;50.306;18.926;2023-02-11T06:17:10;99335.41;;;-0.24;80.30
41624;BME280;27319;50.306;18.926;2023-02-11T06:20:11;99337.25;;;-0.27;80.86
41624;BME280;27319;50.306;18.926;2023-02-11T06:23:12;99341.28;;;-0.36;81.24
41624;BME280;27319;50.306;18.926;2023-02-11T06:26:18;99327.78;;;-0.30;80.94
41624;BME280;27319;50.306;18.926;2023-02-11T06:29:19;99325.53;;;-0.38;80.91
41624;BME280;27319;50.306;18.926;2023-02-11T06:32:20;99326.81;;;-0.46;81.30
41624;BME280;27319;50.306;18.926;2023-02-11T06:35:21;99314.28;;;-0.41;81.12
41624;BME280;27319;50.306;18.926;2023-02-11T06:38:22;99318.00;;;-0.28;80.71
41624;BME280;27319;50.306;18.926;2023-02-11T06:41:43;99323.03;;;-0.41;80.88
41624;BME280;27319;50.306;18.926;2023-02-11T06:45:19;99327.00;;;-0.32;81.24
41624;BME280;27319;50.306;18.926;2023-02-11T06:48:20;99323.13;;;-0.42;81.41
41624;BME280;27319;50.306;18.926;2023-02-11T06:51:22;99324.97;;;-0.28;80.96
41624;BME280;27319;50.306;18.926;2023-02-11T06:54:42;99326.22;;;-0.34;80.72
41624;BME280;27319;50.306;18.926;2023-02-11T06:58:43;99325.91;;;-0.28;80.92
41624;BME280;27319;50.306;18.926;2023-02-11T07:02:32;99317.25;;;-0.30;80.96
41624;BME280;27319;50.306;18.926;2023-02-11T07:05:33;99313.38;;;-0.23;80.86
41624;BME280;27319;50.306;18.926;2023-02-11T07:08:36;99315.81;;;-0.38;80.93
41624;BME280;27319;50.306;18.926;2023-02-11T07:11:37;99313.28;;;-0.39;81.17
41624;BME280;27319;50.306;18.926;2023-02-11T07:14:38;99316.59;;;-0.35;81.13
41624;BME280;27319;50.306;18.926;2023-02-11T07:17:39;99318.31;;;-0.34;81.13
41624;BME280;27319;50.306;18.926;2023-02-11T07:20:40;99318.94;;;-0.29;81.07
41624;BME280;27319;50.306;18.926;2023-02-11T07:23:41;99322.59;;;-0.32;81.06
41624;BME280;27319;50.306;18.926;2023-02-11T07:26:42;99316.25;;;-0.28;81.08
41624;BME280;27319;50.306;18.926;2023-02-11T07:29:44;99317.41;;;-0.17;80.69
41624;BME280;27319;50.306;18.926;2023-02-11T07:32:47;99315.38;;;-0.28;81.25
41624;BME280;27319;50.306;18.926;2023-02-11T07:36:09;99307.31;;;-0.25;81.38
41624;BME280;27319;50.306;18.926;2023-02-11T07:39:29;99293.19;;;-0.24;81.33
41624;BME280;27319;50.306;18.926;2023-02-11T07:42:50;99293.34;;;-0.11;80.99
41624;BME280;27319;50.306;18.926;2023-02-11T07:46:51;99290.56;;;0.09;80.28
41624;BME280;27319;50.306;18.926;2023-02-11T07:50:32;99282.78;;;-0.11;80.83
41624;BME280;27319;50.306;18.926;2023-02-11T07:53:53;99285.44;;;0.06;80.68
41624;BME280;27319;50.306;18.926;2023-02-11T07:57:34;99287.81;;;0.11;81.45
41624;BME280;27319;50.306;18.926;2023-02-11T08:00:35;99282.53;;;0.28;80.75
41624;BME280;27319;50.306;18.926;2023-02-11T08:03:37;99287.44;;;0.35;80.02
41624;BME280;27319;50.306;18.926;2023-02-11T08:06:40;99292.25;;;0.44;80.18
41624;BME280;27319;50.306;18.926;2023-02-11T08:09:42;99273.50;;;0.49;79.70
41624;BME280;27319;50.306;18.926;2023-02-11T08:12:42;99280.00;;;0.59;80.12
41624;BME280;27319;50.306;18.926;2023-02-11T08:15:44;99277.97;;;0.64;78.94
41624;BME280;27319;50.306;18.926;2023-02-11T08:19:06;99281.91;;;0.72;79.35
41624;BME280;27319;50.306;18.926;2023-02-11T08:22:45;99298.53;;;0.74;79.14
41624;BME280;27319;50.306;18.926;2023-02-11T08:26:07;99300.09;;;0.78;79.47
41624;BME280;27319;50.306;18.926;2023-02-11T08:30:07;99308.28;;;0.89;78.93
41624;BME280;27319;50.306;18.926;2023-02-11T08:34:08;99295.22;;;0.86;78.49
41624;BME280;27319;50.306;18.926;2023-02-11T08:38:08;99288.59;;;1.10;78.24
41624;BME280;27319;50.306;18.926;2023-02-11T08:42:12;99285.00;;;1.11;78.37
41624;BME280;27319;50.306;18.926;2023-02-11T08:46:00;99285.88;;;1.12;77.91
41624;BME280;27319;50.306;18.926;2023-02-11T08:50:01;99300.53;;;1.17;78.00
41624;BME280;27319;50.306;18.926;2023-02-11T08:54:02;99293.81;;;1.27;77.28
41624;BME280;27319;50.306;18.926;2023-02-11T08:58:03;99290.41;;;1.25;78.36
41624;BME280;27319;50.306;18.926;2023-02-11T09:02:03;99303.28;;;1.31;77.49
41624;BME280;27319;50.306;18.926;2023-02-11T09:05:52;99294.41;;;1.32;77.69
41624;BME280;27319;50.306;18.926;2023-02-11T09:09:53;99290.47;;;1.39;77.36
41624;BME280;27319;50.306;18.926;2023-02-11T09:13:54;99299.63;;;1.34;77.34
41624;BME280;27319;50.306;18.926;2023-02-11T09:17:55;99321.72;;;1.33;77.19
41624;BME280;27319;50.306;18.926;2023-02-11T09:21:56;99318.13;;;1.34;77.26
41624;BME280;27319;50.306;18.926;2023-02-11T09:26:10;99326.66;;;1.39;76.64
41624;BME280;27319;50.306;18.926;2023-02-11T09:30:00;99310.19;;;1.49;77.29
41624;BME280;27319;50.306;18.926;2023-02-11T09:34:03;99321.53;;;1.51;77.40
41624;BME280;27319;50.306;18.926;2023-02-11T09:38:02;99332.78;;;1.70;76.56
41624;BME280;27319;50.306;18.926;2023-02-11T09:45:45;99317.84;;;1.69;76.57
41624;BME280;27319;50.306;18.926;2023-02-11T09:50:02;99317.25;;;1.80;76.35
41624;BME280;27319;50.306;18.926;2023-02-11T09:54:03;99314.16;;;1.87;75.65
41624;BME280;27319;50.306;18.926;2023-02-11T09:58:03;99302.97;;;1.82;76.40
41624;BME280;27319;50.306;18.926;2023-02-11T10:24:16;99255.44;;;2.24;74.63
41624;BME280;27319;50.306;18.926;2023-02-11T10:28:18;99230.69;;;2.39;74.33
41624;BME280;27319;50.306;18.926;2023-02-11T10:32:24;99206.25;;;2.48;74.45
41624;BME280;27319;50.306;18.926;2023-02-11T10:36:23;99184.03;;;2.65;74.28
41624;BME280;27319;50.306;18.926;2023-02-11T10:40:23;99168.66;;;2.70;73.27
41624;BME280;27319;50.306;18.926;2023-02-11T10:52:12;99133.28;;;2.97;73.87
41624;BME280;27319;50.306;18.926;2023-02-11T10:56:19;99136.13;;;2.94;73.84
41624;BME280;27319;50.306;18.926;2023-02-11T11:03:56;99161.72;;;2.81;74.00
41624;BME280;27319;50.306;18.926;2023-02-11T11:07:41;99168.16;;;2.91;74.42
41624;BME280;27319;50.306;18.926;2023-02-11T11:11:50;99160.69;;;2.84;74.03
41624;BME280;27319;50.306;18.926;2023-02-11T11:15:42;99160.44;;;2.74;74.74
41624;BME280;27319;50.306;18.926;2023-02-11T11:19:42;99156.03;;;2.87;74.90
41624;BME280;27319;50.306;18.926;2023-02-11T11:23:53;99147.59;;;2.95;74.65
41624;BME280;27319;50.306;18.926;2023-02-11T11:27:50;99149.47;;;2.93;75.30
41624;BME280;27319;50.306;18.926;2023-02-11T11:31:57;99159.81;;;2.97;75.43
41624;BME280;27319;50.306;18.926;2023-02-11T11:36:05;99148.31;;;3.11;75.30
41624;BME280;27319;50.306;18.926;2023-02-11T11:40:09;99144.84;;;2.96;75.85
41624;BME280;27319;50.306;18.926;2023-02-11T11:44:22;99122.78;;;2.96;76.29
41624;BME280;27319;50.306;18.926;2023-02-11T11:48:23;99127.19;;;2.83;77.24
41624;BME280;27319;50.306;18.926;2023-02-11T11:56:19;99143.91;;;2.83;77.14
41624;BME280;27319;50.306;18.926;2023-02-11T12:00:19;99164.94;;;2.86;76.54
41624;BME280;27319;50.306;18.926;2023-02-11T12:08:16;99166.47;;;2.76;76.62
41624;BME280;27319;50.306;18.926;2023-02-11T12:22:36;99170.25;;;2.72;79.73
41624;BME280;27319;50.306;18.926;2023-02-11T12:26:22;99166.16;;;2.81;80.54
41624;BME280;27319;50.306;18.926;2023-02-11T12:29:33;99165.34;;;2.66;81.90
41624;BME280;27319;50.306;18.926;2023-02-11T12:32:58;99172.66;;;2.63;82.74
41624;BME280;27319;50.306;18.926;2023-02-11T12:36:16;99147.78;;;2.51;83.64
41624;BME280;27319;50.306;18.926;2023-02-11T12:39:33;99147.59;;;2.40;84.05
41624;BME280;27319;50.306;18.926;2023-02-11T12:46:49;99098.69;;;2.32;85.70
41624;BME280;27319;50.306;18.926;2023-02-11T12:54:14;99059.63;;;2.35;85.62
41624;BME280;27319;50.306;18.926;2023-02-11T12:58:11;99073.59;;;2.37;85.81
41624;BME280;27319;50.306;18.926;2023-02-11T13:02:17;99061.00;;;2.55;85.00
41624;BME280;27319;50.306;18.926;2023-02-11T13:05:41;99092.88;;;2.53;84.77
41624;BME280;27319;50.306;18.926;2023-02-11T13:08:55;99107.25;;;2.49;85.37
41624;BME280;27319;50.306;18.926;2023-02-11T13:12:19;99086.72;;;2.53;85.08
41624;BME280;27319;50.306;18.926;2023-02-11T13:20:17;99067.25;;;2.54;86.36
41624;BME280;27319;50.306;18.926;2023-02-11T13:24:30;99077.47;;;2.60;87.95
41624;BME280;27319;50.306;18.926;2023-02-11T13:28:47;99071.34;;;2.45;88.86
41624;BME280;27319;50.306;18.926;2023-02-11T13:33:32;99029.09;;;2.56;88.85
41624;BME280;27319;50.306;18.926;2023-02-11T13:36:54;98986.03;;;2.53;89.63
41624;BME280;27319;50.306;18.926;2023-02-11T13:41:01;98994.34;;;2.61;90.33
41624;BME280;27319;50.306;18.926;2023-02-11T13:45:01;99016.38;;;2.61;90.67
41624;BME280;27319;50.306;18.926;2023-02-11T13:49:04;99014.84;;;2.71;90.36
41624;BME280;27319;50.306;18.926;2023-02-11T13:53:05;99018.78;;;2.52;91.43
41624;BME280;27319;50.306;18.926;2023-02-11T14:04:22;99040.22;;;2.61;91.30
41624;BME280;27319;50.306;18.926;2023-02-11T14:15:17;99041.19;;;2.60;92.18
41624;BME280;27319;50.306;18.926;2023-02-11T14:19:29;99063.91;;;2.64;92.20
41624;BME280;27319;50.306;18.926;2023-02-11T14:23:20;99075.78;;;2.71;92.06
41624;BME280;27319;50.306;18.926;2023-02-11T14:27:22;99075.78;;;2.45;92.62
41624;BME280;27319;50.306;18.926;2023-02-11T14:31:09;99083.72;;;2.59;92.90
41624;BME280;27319;50.306;18.926;2023-02-11T14:41:10;99072.56;;;2.54;94.50
41624;BME280;27319;50.306;18.926;2023-02-11T14:44:52;99089.50;;;2.51;93.85
41624;BME280;27319;50.306;18.926;2023-02-11T14:48:06;99073.78;;;2.48;94.43
41624;BME280;27319;50.306;18.926;2023-02-11T14:51:34;99065.53;;;2.53;94.17
41624;BME280;27319;50.306;18.926;2023-02-11T14:55:35;99074.44;;;2.52;93.91
41624;BME280;27319;50.306;18.926;2023-02-11T14:59:35;99070.81;;;2.53;93.65
41624;BME280;27319;50.306;18.926;2023-02-11T15:03:32;99075.69;;;2.46;94.30
41624;BME280;27319;50.306;18.926;2023-02-11T15:06:54;99074.34;;;2.53;93.72
41624;BME280;27319;50.306;18.926;2023-02-11T15:10:55;99089.13;;;2.43;94.13
41624;BME280;27319;50.306;18.926;2023-02-11T15:14:56;99099.22;;;2.51;93.33
41624;BME280;27319;50.306;18.926;2023-02-11T15:18:57;99093.00;;;2.38;93.20
41624;BME280;27319;50.306;18.926;2023-02-11T15:23:00;99100.47;;;2.45;93.46
41624;BME280;27319;50.306;18.926;2023-02-11T15:27:21;99103.53;;;2.39;93.45
41624;BME280;27319;50.306;18.926;2023-02-11T15:31:02;99111.47;;;2.39;93.72
41624;BME280;27319;50.306;18.926;2023-02-11T15:35:01;99109.00;;;2.36;93.85
41624;BME280;27319;50.306;18.926;2023-02-11T15:43:13;99116.75;;;2.39;93.73
41624;BME280;27319;50.306;18.926;2023-02-11T15:47:16;99127.91;;;2.58;93.80
41624;BME280;27319;50.306;18.926;2023-02-11T15:54:55;99118.28;;;2.29;94.39
41624;BME280;27319;50.306;18.926;2023-02-11T15:59:06;99125.38;;;2.29;95.31
41624;BME280;27319;50.306;18.926;2023-02-11T16:03:00;99132.66;;;2.25;95.26
41624;BME280;27319;50.306;18.926;2023-02-11T16:07:00;99133.78;;;2.35;95.35
41624;BME280;27319;50.306;18.926;2023-02-11T16:14:17;99138.03;;;2.24;95.53
41624;BME280;27319;50.306;18.926;2023-02-11T16:18:03;99141.63;;;2.23;96.09
41624;BME280;27319;50.306;18.926;2023-02-11T16:22:06;99135.97;;;2.29;96.15
41624;BME280;27319;50.306;18.926;2023-02-11T16:26:09;99140.59;;;2.25;96.10
41624;BME280;27319;50.306;18.926;2023-02-11T16:30:53;99136.53;;;2.20;96.38
41624;BME280;27319;50.306;18.926;2023-02-11T16:37:55;99145.06;;;2.25;96.44
41624;BME280;27319;50.306;18.926;2023-02-11T16:41:51;99156.31;;;2.28;96.54
41624;BME280;27319;50.306;18.926;2023-02-11T16:45:12;99159.81;;;2.15;97.00
41624;BME280;27319;50.306;18.926;2023-02-11T16:49:22;99150.44;;;2.23;97.69
41624;BME280;27319;50.306;18.926;2023-02-11T16:53:22;99154.78;;;2.24;97.07
41624;BME280;27319;50.306;18.926;2023-02-11T16:57:29;99154.59;;;2.13;97.56
41624;BME280;27319;50.306;18.926;2023-02-11T17:01:17;99150.63;;;2.20;98.32
41624;BME280;27319;50.306;18.926;2023-02-11T17:05:20;99152.50;;;2.32;98.05
41624;BME280;27319;50.306;18.926;2023-02-11T17:08:51;99153.53;;;2.30;97.88
41624;BME280;27319;50.306;18.926;2023-02-11T17:12:52;99160.28;;;2.21;98.24
41624;BME280;27319;50.306;18.926;2023-02-11T17:16:52;99170.78;;;2.23;98.00
41624;BME280;27319;50.306;18.926;2023-02-11T17:20:53;99160.28;;;2.21;98.41
41624;BME280;27319;50.306;18.926;2023-02-11T17:24:54;99170.19;;;2.18;98.86
41624;BME280;27319;50.306;18.926;2023-02-11T17:28:55;99158.50;;;2.36;98.01
41624;BME280;27319;50.306;18.926;2023-02-11T17:32:56;99170.50;;;2.27;99.02
41624;BME280;27319;50.306;18.926;2023-02-11T17:36:57;99177.50;;;2.28;99.02
41624;BME280;27319;50.306;18.926;2023-02-11T17:40:58;99170.22;;;2.32;99.07
41624;BME280;27319;50.306;18.926;2023-02-11T17:44:58;99170.38;;;2.29;99.51
41624;BME280;27319;50.306;18.926;2023-02-11T17:48:59;99172.66;;;2.35;99.84
41624;BME280;27319;50.306;18.926;2023-02-11T17:53:00;99172.28;;;2.55;99.22
41624;BME280;27319;50.306;18.926;2023-02-11T17:57:01;99166.97;;;2.41;99.67
41624;BME280;27319;50.306;18.926;2023-02-11T18:00:57;99170.56;;;2.40;100.00
41624;BME280;27319;50.306;18.926;2023-02-11T18:04:55;99171.25;;;2.43;100.00
41624;BME280;27319;50.306;18.926;2023-02-11T18:08:06;99177.97;;;2.35;100.00
41624;BME280;27319;50.306;18.926;2023-02-11T18:11:30;99180.03;;;2.30;100.00
41624;BME280;27319;50.306;18.926;2023-02-11T18:15:31;99188.00;;;2.44;100.00
41624;BME280;27319;50.306;18.926;2023-02-11T18:19:31;99181.84;;;2.57;100.00
41624;BME280;27319;50.306;18.926;2023-02-11T18:23:32;99191.88;;;2.52;100.00
41624;BME280;27319;50.306;18.926;2023-02-11T18:27:33;99180.63;;;2.49;100.00
41624;BME280;27319;50.306;18.926;2023-02-11T18:31:14;99180.16;;;2.56;100.00
41624;BME280;27319;50.306;18.926;2023-02-11T18:34:34;99192.91;;;2.50;100.00
41624;BME280;27319;50.306;18.926;2023-02-11T18:38:35;99193.75;;;2.64;100.00
41624;BME280;27319;50.306;18.926;2023-02-11T18:41:44;99194.13;;;2.58;100.00
41624;BME280;27319;50.306;18.926;2023-02-11T18:44:45;99189.88;;;2.56;100.00
41624;BME280;27319;50.306;18.926;2023-02-11T18:47:46;99191.50;;;2.58;100.00
41624;BME280;27319;50.306;18.926;2023-02-11T18:50:47;99203.78;;;2.59;100.00
41624;BME280;27319;50.306;18.926;2023-02-11T18:54:08;99200.00;;;2.63;100.00
41624;BME280;27319;50.306;18.926;2023-02-11T18:58:09;99201.31;;;2.70;100.00
41624;BME280;27319;50.306;18.926;2023-02-11T19:02:10;99206.72;;;2.55;100.00
41624;BME280;27319;50.306;18.926;2023-02-11T19:05:51;99200.38;;;2.57;100.00
41624;BME280;27319;50.306;18.926;2023-02-11T19:09:51;99206.44;;;2.73;100.00
41624;BME280;27319;50.306;18.926;2023-02-11T19:13:52;99208.72;;;2.65;100.00
41624;BME280;27319;50.306;18.926;2023-02-11T19:17:53;99219.78;;;2.72;100.00
41624;BME280;27319;50.306;18.926;2023-02-11T19:21:54;99223.75;;;2.79;100.00
41624;BME280;27319;50.306;18.926;2023-02-11T19:25:55;99221.56;;;2.71;100.00
41624;BME280;27319;50.306;18.926;2023-02-11T19:29:36;99217.69;;;2.77;100.00
41624;BME280;27319;50.306;18.926;2023-02-11T19:32:37;99227.53;;;2.89;100.00
41624;BME280;27319;50.306;18.926;2023-02-11T19:35:38;99222.78;;;2.94;100.00
41624;BME280;27319;50.306;18.926;2023-02-11T19:38:38;99219.56;;;2.89;100.00
41624;BME280;27319;50.306;18.926;2023-02-11T19:41:40;99220.72;;;2.85;100.00
41624;BME280;27319;50.306;18.926;2023-02-11T19:44:41;99231.41;;;2.97;100.00
41624;BME280;27319;50.306;18.926;2023-02-11T19:47:42;99227.63;;;2.87;100.00
41624;BME280;27319;50.306;18.926;2023-02-11T19:50:43;99231.50;;;2.96;100.00
41624;BME280;27319;50.306;18.926;2023-02-11T19:54:04;99226.06;;;3.11;100.00
41624;BME280;27319;50.306;18.926;2023-02-11T19:57:45;99229.28;;;3.16;100.00
41624;BME280;27319;50.306;18.926;2023-02-11T20:01:06;99232.00;;;3.29;100.00
41624;BME280;27319;50.306;18.926;2023-02-11T20:04:54;99223.31;;;3.39;100.00
41624;BME280;27319;50.306;18.926;2023-02-11T20:07:54;99228.72;;;3.38;100.00
41624;BME280;27319;50.306;18.926;2023-02-11T20:11:16;99224.84;;;3.43;100.00
41624;BME280;27319;50.306;18.926;2023-02-11T20:15:16;99227.66;;;3.54;100.00
41624;BME280;27319;50.306;18.926;2023-02-11T20:19:18;99230.56;;;3.50;100.00
41624;BME280;27319;50.306;18.926;2023-02-11T20:23:18;99231.22;;;3.53;100.00
41624;BME280;27319;50.306;18.926;2023-02-11T20:27:19;99236.25;;;3.58;100.00
41624;BME280;27319;50.306;18.926;2023-02-11T20:31:20;99246.97;;;3.56;100.00
41624;BME280;27319;50.306;18.926;2023-02-11T20:35:20;99243.25;;;3.59;100.00
41624;BME280;27319;50.306;18.926;2023-02-11T20:39:22;99254.72;;;3.59;100.00
41624;BME280;27319;50.306;18.926;2023-02-11T20:43:22;99247.22;;;3.66;100.00
41624;BME280;27319;50.306;18.926;2023-02-11T20:47:23;99259.53;;;3.67;100.00
41624;BME280;27319;50.306;18.926;2023-02-11T20:51:25;99260.72;;;3.75;100.00
41624;BME280;27319;50.306;18.926;2023-02-11T20:55:05;99259.53;;;3.67;100.00
41624;BME280;27319;50.306;18.926;2023-02-11T20:58:06;99269.94;;;3.70;100.00
41624;BME280;27319;50.306;18.926;2023-02-11T21:01:31;99259.44;;;3.68;100.00
41624;BME280;27319;50.306;18.926;2023-02-11T21:05:11;99260.16;;;3.70;100.00
41624;BME280;27319;50.306;18.926;2023-02-11T21:08:11;99264.25;;;3.76;100.00
41624;BME280;27319;50.306;18.926;2023-02-11T21:11:15;99262.94;;;3.69;100.00